createdAt,value
2017-12-08T00:00:52.868Z,100728.66
2017-12-08T00:03:21.971Z,100730.31
2017-12-08T00:08:35.992Z,100729.58
2017-12-08T00:11:04.339Z,100733.16
2017-12-08T00:13:33.540Z,100748.00
2017-12-08T00:16:01.868Z,100731.64
2017-12-08T00:18:30.188Z,100716.78
2017-12-08T00:20:59.289Z,100722.09
2017-12-08T00:23:28.377Z,100711.45
2017-12-08T00:25:57.506Z,100709.20
2017-12-08T00:28:25.906Z,100708.64
2017-12-08T00:30:54.254Z,100710.28
2017-12-08T00:33:22.600Z,100711.19
2017-12-08T00:35:50.964Z,100707.25
2017-12-08T00:38:19.378Z,100713.55
2017-12-08T00:40:47.689Z,100711.30
2017-12-08T00:43:16.019Z,100709.38
2017-12-08T00:45:44.424Z,100709.61
2017-12-08T00:48:14.971Z,100715.36
2017-12-08T00:50:44.056Z,100721.04
2017-12-08T00:53:13.162Z,100716.28
2017-12-08T00:55:41.466Z,100709.64
2017-12-08T00:58:09.794Z,100717.11
2017-12-08T01:00:38.730Z,100712.62
2017-12-08T01:03:08.158Z,100711.72
2017-12-08T01:05:36.506Z,100714.94
2017-12-08T01:08:05.686Z,100720.80
2017-12-08T01:10:35.080Z,100719.93
2017-12-08T01:13:03.399Z,100724.01
2017-12-08T01:15:32.555Z,100727.35
2017-12-08T01:18:00.904Z,100727.53
2017-12-08T01:20:30.021Z,100727.03
2017-12-08T01:22:58.420Z,100722.86
2017-12-08T01:25:26.792Z,100717.41
2017-12-08T01:27:55.118Z,100746.41
2017-12-08T01:30:24.172Z,100746.76
2017-12-08T01:32:52.468Z,100748.96
2017-12-08T01:35:20.783Z,100748.13
2017-12-08T01:37:49.841Z,100755.39
2017-12-08T01:40:18.988Z,100766.44
2017-12-08T01:42:47.286Z,100761.65
2017-12-08T01:45:15.590Z,100750.29
2017-12-08T01:47:43.915Z,100764.75
2017-12-08T01:50:12.985Z,100754.15
2017-12-08T01:52:41.273Z,100759.52
2017-12-08T01:55:09.570Z,100759.19
2017-12-08T01:57:38.645Z,100757.55
2017-12-08T02:00:07.007Z,100756.80
2017-12-08T02:02:35.358Z,100768.97
2017-12-08T02:05:03.648Z,100778.16
2017-12-08T02:07:32.093Z,100770.90
2017-12-08T02:10:01.166Z,100780.16
2017-12-08T02:12:29.491Z,100768.91
2017-12-08T02:14:57.886Z,100774.55
2017-12-08T02:17:26.178Z,100772.06
2017-12-08T02:19:54.470Z,100778.94
2017-12-08T02:22:22.872Z,100770.32
2017-12-08T02:24:51.185Z,100767.33
2017-12-08T02:27:20.271Z,100766.41
2017-12-08T02:29:49.357Z,100758.91
2017-12-08T02:32:17.741Z,100763.29
2017-12-08T02:34:46.086Z,100745.14
2017-12-08T02:37:14.399Z,100757.31
2017-12-08T02:39:42.774Z,100751.34
2017-12-08T02:42:11.089Z,100760.04
2017-12-08T02:44:40.152Z,100762.34
2017-12-08T02:47:08.593Z,100750.91
2017-12-08T02:49:36.895Z,100763.50
2017-12-08T02:52:06.075Z,100775.22
2017-12-08T02:54:34.384Z,100757.12
2017-12-08T02:57:02.700Z,100765.66
2017-12-08T02:59:31.796Z,100770.05
2017-12-08T03:02:00.875Z,100767.41
2017-12-08T03:04:29.175Z,100763.69
2017-12-08T03:06:58.235Z,100765.84
2017-12-08T03:09:26.570Z,100764.67
2017-12-08T03:11:55.744Z,100757.12
2017-12-08T03:14:24.065Z,100756.63
2017-12-08T03:16:52.356Z,100767.73
2017-12-08T03:19:20.647Z,100759.86
2017-12-08T03:21:48.966Z,100765.02
2017-12-08T03:24:18.044Z,100757.75
2017-12-08T03:26:46.340Z,100758.66
2017-12-08T03:29:14.642Z,100749.67
2017-12-08T03:31:43.703Z,100751.82
2017-12-08T03:34:11.989Z,100758.45
2017-12-08T03:36:40.276Z,100742.25
2017-12-08T03:39:08.577Z,100744.15
2017-12-08T03:41:36.897Z,100737.84
2017-12-08T03:44:05.279Z,100740.89
2017-12-08T03:46:33.609Z,100741.96
2017-12-08T03:49:02.673Z,100738.52
2017-12-08T03:51:30.973Z,100745.14
2017-12-08T03:53:59.279Z,100747.30
2017-12-08T03:56:27.599Z,100747.54
2017-12-08T03:58:55.901Z,100737.39
2017-12-08T04:01:24.221Z,100737.66
2017-12-08T04:03:53.314Z,100745.64
2017-12-08T04:06:21.627Z,100741.50
2017-12-08T04:08:49.927Z,100741.72
2017-12-08T04:11:18.387Z,100740.70
2017-12-08T04:13:46.718Z,100736.81
2017-12-08T04:16:15.028Z,100735.70
2017-12-08T04:18:44.106Z,100740.09
2017-12-08T04:21:13.183Z,100731.16
2017-12-08T04:23:41.477Z,100738.97
2017-12-08T04:26:09.785Z,100721.58
2017-12-08T04:28:38.858Z,100734.98
2017-12-08T04:31:07.161Z,100739.68
2017-12-08T04:33:36.222Z,100734.46
2017-12-08T04:36:04.517Z,100720.97
2017-12-08T04:38:32.891Z,100727.20
2017-12-08T04:41:01.193Z,100728.52
2017-12-08T04:43:29.641Z,100727.12
2017-12-08T04:45:57.969Z,100726.16
2017-12-08T04:48:27.053Z,100709.98
2017-12-08T04:50:56.139Z,100705.17
2017-12-08T04:53:24.463Z,100703.11
2017-12-08T04:55:52.767Z,100702.61
2017-12-08T04:58:21.095Z,100695.22
2017-12-08T05:00:50.167Z,100695.70
2017-12-08T05:03:18.466Z,100699.05
2017-12-08T05:05:46.787Z,100696.47
2017-12-08T05:08:15.576Z,100694.64
2017-12-08T05:10:43.904Z,100695.41
2017-12-08T05:13:12.225Z,100700.91
2017-12-08T05:15:41.279Z,100694.87
2017-12-08T05:18:09.770Z,100709.78
2017-12-08T05:20:38.079Z,100710.98
2017-12-08T05:23:07.131Z,100688.64
2017-12-08T05:25:35.436Z,100690.52
2017-12-08T05:28:05.239Z,100665.95
2017-12-08T05:30:33.554Z,100672.66
2017-12-08T05:33:02.633Z,100677.42
2017-12-08T05:35:30.928Z,100672.97
2017-12-08T05:38:00.002Z,100679.10
2017-12-08T05:40:28.326Z,100683.41
2017-12-08T05:42:56.624Z,100674.13
2017-12-08T05:45:24.948Z,100683.41
2017-12-08T05:47:53.308Z,100680.45
2017-12-08T05:50:21.628Z,100682.94
2017-12-08T05:52:50.770Z,100676.81
2017-12-08T05:55:19.258Z,100670.90
2017-12-08T05:57:47.557Z,100668.16
2017-12-08T06:00:15.854Z,100669.79
2017-12-08T06:02:44.170Z,100673.80
2017-12-08T06:05:13.322Z,100664.41
2017-12-08T06:07:41.706Z,100661.64
2017-12-08T06:10:09.991Z,100670.95
2017-12-08T06:12:38.434Z,100668.95
2017-12-08T06:15:06.740Z,100667.95
2017-12-08T06:17:35.144Z,100673.60
2017-12-08T06:20:03.444Z,100666.65
2017-12-08T06:22:32.538Z,100665.88
2017-12-08T06:25:01.605Z,100662.52
2017-12-08T06:27:29.970Z,100672.70
2017-12-08T06:29:59.236Z,100671.32
2017-12-08T06:32:27.575Z,100666.64
2017-12-08T06:34:56.152Z,100666.10
2017-12-08T06:37:25.260Z,100661.01
2017-12-08T06:39:53.990Z,100667.48
2017-12-08T06:42:23.059Z,100663.57
2017-12-08T06:44:51.376Z,100671.46
2017-12-08T06:47:19.686Z,100673.06
2017-12-08T06:49:48.490Z,100677.54
2017-12-08T06:52:16.888Z,100683.70
2017-12-08T06:54:45.262Z,100689.47
2017-12-08T06:57:13.809Z,100696.16
2017-12-08T06:59:42.123Z,100708.55
2017-12-08T07:02:10.555Z,100693.19
2017-12-08T07:04:38.884Z,100712.01
2017-12-08T07:07:07.208Z,100701.29
2017-12-08T07:09:36.549Z,100718.56
2017-12-08T07:12:04.865Z,100723.89
2017-12-08T07:14:33.192Z,100725.54
2017-12-08T07:17:01.515Z,100739.55
2017-12-08T07:19:29.822Z,100730.00
2017-12-08T07:21:58.102Z,100718.59
2017-12-08T07:24:27.192Z,100725.71
2017-12-08T07:26:55.509Z,100735.52
2017-12-08T07:29:23.829Z,100736.19
2017-12-08T07:31:52.117Z,100729.33
2017-12-08T07:34:20.431Z,100738.50
2017-12-08T07:36:49.604Z,100728.98
2017-12-08T07:39:17.905Z,100724.66
2017-12-08T07:41:46.975Z,100707.23
2017-12-08T07:44:15.266Z,100722.08
2017-12-08T07:46:44.353Z,100716.08
2017-12-08T07:49:12.671Z,100718.73
2017-12-08T07:51:41.746Z,100726.88
2017-12-08T07:54:10.821Z,100735.13
2017-12-08T07:56:39.216Z,100727.73
2017-12-08T07:59:07.658Z,100726.58
2017-12-08T08:01:35.963Z,100734.50
2017-12-08T08:04:04.984Z,100746.89
2017-12-08T08:06:33.288Z,100743.91
2017-12-08T08:09:02.383Z,100750.02
2017-12-08T08:11:31.465Z,100750.67
2017-12-08T08:13:59.774Z,100756.63
2017-12-08T08:16:28.121Z,100762.40
2017-12-08T08:18:57.210Z,100765.22
2017-12-08T08:21:25.524Z,100767.62
2017-12-08T08:23:54.617Z,100770.11
2017-12-08T08:26:23.701Z,100764.56
2017-12-08T08:28:52.027Z,100781.00
2017-12-08T08:31:20.336Z,100780.27
2017-12-08T08:33:48.667Z,100789.77
2017-12-08T08:36:17.755Z,100803.47
2017-12-08T08:38:46.861Z,100805.52
2017-12-08T08:41:15.150Z,100808.56
2017-12-08T08:43:43.451Z,100818.27
2017-12-08T08:46:11.750Z,100823.55
2017-12-08T08:48:40.068Z,100840.76
2017-12-08T08:51:09.270Z,100834.44
2017-12-08T08:53:38.360Z,100826.34
2017-12-08T08:56:06.828Z,100836.19
2017-12-08T08:58:35.189Z,100846.84
2017-12-08T09:01:04.308Z,100852.39
2017-12-08T09:03:32.642Z,100855.55
2017-12-08T09:06:00.946Z,100856.80
2017-12-08T09:08:29.279Z,100858.23
2017-12-08T09:10:58.473Z,100857.70
2017-12-08T09:13:27.547Z,100856.73
2017-12-08T09:15:55.865Z,100862.08
2017-12-08T09:18:24.946Z,100854.42
2017-12-08T09:20:53.296Z,100855.41
2017-12-08T09:23:22.419Z,100867.39
2017-12-08T09:25:51.503Z,100869.92
2017-12-08T09:28:20.069Z,100901.25
2017-12-08T09:30:48.478Z,100918.94
2017-12-08T09:33:16.833Z,100907.93
2017-12-08T09:35:45.136Z,100915.85
2017-12-08T09:38:13.671Z,100897.41
2017-12-08T09:40:41.982Z,100907.28
2017-12-08T09:43:11.065Z,100910.23
2017-12-08T09:45:39.406Z,100895.19
2017-12-08T09:48:08.524Z,100886.33
2017-12-08T09:50:36.862Z,100871.80
2017-12-08T09:53:05.178Z,100863.83
2017-12-08T09:55:34.267Z,100839.26
2017-12-08T09:58:03.334Z,100827.32
2017-12-08T10:00:31.662Z,100829.83
2017-12-08T10:02:59.994Z,100838.09
2017-12-08T10:05:28.495Z,100851.32
2017-12-08T10:07:58.310Z,100861.83
2017-12-08T10:10:26.626Z,100851.61
2017-12-08T10:12:55.070Z,100861.31
2017-12-08T10:15:23.367Z,100854.56
2017-12-08T10:17:51.692Z,100856.42
2017-12-08T10:20:20.739Z,100851.70
2017-12-08T10:22:49.928Z,100871.39
2017-12-08T10:25:19.741Z,100881.75
2017-12-08T10:27:48.070Z,100864.88
2017-12-08T10:30:16.427Z,100864.80
2017-12-08T10:32:45.535Z,100848.57
2017-12-08T10:35:14.606Z,100844.86
2017-12-08T10:37:42.982Z,100834.03
2017-12-08T10:40:11.298Z,100831.08
2017-12-08T10:42:40.378Z,100837.27
2017-12-08T10:45:08.676Z,100849.59
2017-12-08T10:47:37.758Z,100835.70
2017-12-08T10:50:06.821Z,100840.21
2017-12-08T10:52:35.118Z,100857.02
2017-12-08T10:55:03.428Z,100867.31
2017-12-08T10:57:32.553Z,100864.42
2017-12-08T11:00:00.908Z,100872.97
2017-12-08T11:02:30.916Z,100876.12
2017-12-08T11:04:59.232Z,100868.53
2017-12-08T11:07:27.559Z,100872.02
2017-12-08T11:09:55.889Z,100865.41
2017-12-08T11:12:24.188Z,100863.13
2017-12-08T11:14:52.501Z,100859.48
2017-12-08T11:17:20.863Z,100874.28
2017-12-08T11:19:49.178Z,100872.58
2017-12-08T11:22:17.495Z,100872.30
2017-12-08T11:24:45.918Z,100868.61
2017-12-08T11:27:14.232Z,100858.92
2017-12-08T11:29:43.310Z,100859.81
2017-12-08T11:32:11.628Z,100853.38
2017-12-08T11:34:39.966Z,100854.37
2017-12-08T11:37:09.060Z,100855.20
2017-12-08T11:39:37.365Z,100857.27
2017-12-08T11:42:05.674Z,100862.55
2017-12-08T11:44:33.993Z,100850.40
2017-12-08T11:47:02.388Z,100855.18
2017-12-08T11:49:30.682Z,100857.91
2017-12-08T11:51:59.779Z,100863.80
2017-12-08T11:54:28.146Z,100883.96
2017-12-08T11:56:56.464Z,100887.05
2017-12-08T11:59:25.528Z,100880.56
2017-12-08T12:01:53.824Z,100875.33
2017-12-08T12:04:22.123Z,100904.50
2017-12-08T12:06:51.289Z,100907.24
2017-12-08T12:09:19.595Z,100903.86
2017-12-08T12:14:22.542Z,100917.42
2017-12-08T12:16:51.781Z,100917.58
2017-12-08T12:19:20.087Z,100922.95
2017-12-08T12:21:49.168Z,100921.66
2017-12-08T12:24:17.485Z,100917.54
2017-12-08T12:26:45.802Z,100916.02
2017-12-08T12:29:14.142Z,100922.73
2017-12-08T12:31:43.253Z,100932.80
2017-12-08T12:34:11.584Z,100941.07
2017-12-08T12:36:39.922Z,100936.24
2017-12-08T12:39:08.332Z,100930.83
2017-12-08T12:41:36.654Z,100934.48
2017-12-08T12:44:05.721Z,100931.78
2017-12-08T12:46:34.061Z,100926.66
2017-12-08T12:49:02.370Z,100919.38
2017-12-08T12:51:30.726Z,100921.01
2017-12-08T12:53:59.036Z,100910.00
2017-12-08T12:56:27.369Z,100914.14
2017-12-08T12:58:56.528Z,100908.30
2017-12-08T13:01:24.838Z,100907.30
2017-12-08T13:03:53.913Z,100901.38
2017-12-08T13:06:22.225Z,100907.33
2017-12-08T13:08:52.123Z,100910.41
2017-12-08T13:11:21.220Z,100905.14
2017-12-08T13:13:49.581Z,100914.23
2017-12-08T13:16:17.909Z,100910.39
2017-12-08T13:18:46.997Z,100905.50
2017-12-08T13:21:16.061Z,100907.48
2017-12-08T13:23:44.357Z,100906.69
2017-12-08T13:26:12.690Z,100896.42
2017-12-08T13:28:41.130Z,100898.79
2017-12-08T13:31:10.216Z,100909.19
2017-12-08T13:33:38.519Z,100897.59
2017-12-08T13:36:07.609Z,100903.14
2017-12-08T13:38:35.897Z,100891.13
2017-12-08T13:41:04.984Z,100901.23
2017-12-08T13:43:34.056Z,100915.98
2017-12-08T13:46:02.387Z,100911.54
2017-12-08T13:48:30.699Z,100909.97
2017-12-08T13:50:59.062Z,100909.42
2017-12-08T13:53:45.453Z,100905.80
2017-12-08T13:56:31.472Z,100904.23
2017-12-08T13:58:59.796Z,100911.45
2017-12-08T14:01:28.888Z,100914.52
2017-12-08T14:03:57.974Z,100917.25
2017-12-08T14:06:26.273Z,100912.00
2017-12-08T14:08:55.332Z,100923.52
2017-12-08T14:11:23.684Z,100913.80
2017-12-08T14:13:51.989Z,100920.02
2017-12-08T14:16:20.335Z,100919.27
2017-12-08T14:18:49.252Z,100918.08
2017-12-08T14:21:17.597Z,100925.53
2017-12-08T14:23:45.927Z,100928.48
2017-12-08T14:26:14.242Z,100923.18
2017-12-08T14:28:43.345Z,100923.38
2017-12-08T14:31:12.443Z,100929.17
2017-12-08T14:33:41.554Z,100932.82
2017-12-08T14:36:09.949Z,100941.09
2017-12-08T14:38:38.293Z,100944.58
2017-12-08T14:41:07.359Z,100929.38
2017-12-08T14:43:35.749Z,100939.80
2017-12-08T14:46:04.037Z,100939.13
2017-12-08T14:48:32.405Z,100929.20
2017-12-08T14:51:01.563Z,100934.42
2017-12-08T14:53:29.864Z,100934.25
2017-12-08T14:55:58.185Z,100943.52
2017-12-08T14:58:26.482Z,100936.41
2017-12-08T15:00:55.565Z,100945.98
2017-12-08T15:03:24.724Z,100928.59
2017-12-08T15:05:53.029Z,100943.50
2017-12-08T15:08:21.351Z,100941.55
2017-12-08T15:10:50.408Z,100948.99
2017-12-08T15:13:18.747Z,100937.16
2017-12-08T15:15:47.095Z,100958.76
2017-12-08T15:18:15.406Z,100953.45
2017-12-08T15:20:43.713Z,100947.16
2017-12-08T15:23:12.019Z,100950.31
2017-12-08T15:25:40.330Z,100951.05
2017-12-08T15:28:09.389Z,100940.88
2017-12-08T15:30:37.688Z,100946.34
2017-12-08T15:33:06.787Z,100946.34
2017-12-08T15:35:35.841Z,100963.40
2017-12-08T15:38:04.184Z,100961.97
2017-12-08T15:40:33.412Z,100950.92
2017-12-08T15:43:01.708Z,100947.78
2017-12-08T15:45:30.014Z,100955.61
2017-12-08T15:47:58.348Z,100951.30
2017-12-08T15:50:26.647Z,100953.95
2017-12-08T15:52:54.950Z,100958.47
2017-12-08T15:55:23.256Z,100987.00
2017-12-08T15:57:51.685Z,100988.46
2017-12-08T16:00:20.102Z,100997.58
2017-12-08T16:02:48.425Z,100999.50
2017-12-08T16:05:16.724Z,100980.34
2017-12-08T16:07:45.031Z,100999.21
2017-12-08T16:10:13.329Z,100993.95
2017-12-08T16:12:41.654Z,101015.18
2017-12-08T16:15:10.078Z,101014.70
2017-12-08T16:17:38.398Z,101002.34
2017-12-08T16:20:07.499Z,101011.18
2017-12-08T16:22:36.661Z,101008.77
2017-12-08T16:25:05.111Z,100999.90
2017-12-08T16:27:33.617Z,100964.99
2017-12-08T16:30:02.025Z,100994.62
2017-12-08T16:32:31.129Z,100975.11
2017-12-08T16:35:00.214Z,100974.55
2017-12-08T16:37:28.587Z,100974.27
2017-12-08T16:39:57.145Z,100965.93
2017-12-08T16:42:26.721Z,100979.86
2017-12-08T16:44:55.821Z,100975.67
2017-12-08T16:47:24.894Z,100981.56
2017-12-08T16:49:53.300Z,100968.16
2017-12-08T16:52:22.215Z,100960.17
2017-12-08T16:54:50.531Z,100949.94
2017-12-08T16:57:18.939Z,100973.38
2017-12-08T16:59:47.305Z,100977.15
2017-12-08T17:02:15.592Z,100979.52
2017-12-08T17:04:43.909Z,100980.82
2017-12-08T17:07:12.219Z,100988.94
2017-12-08T17:09:40.543Z,100993.35
2017-12-08T17:12:09.637Z,100984.38
2017-12-08T17:14:37.955Z,100997.56
2017-12-08T17:17:06.273Z,100991.48
2017-12-08T17:19:34.587Z,100984.12
2017-12-08T17:22:02.895Z,100979.37
2017-12-08T17:24:31.214Z,100967.62
2017-12-08T17:26:59.525Z,100981.77
2017-12-08T17:29:28.763Z,100965.48
2017-12-08T17:31:57.075Z,100968.90
2017-12-08T17:34:25.389Z,100963.41
2017-12-08T17:36:54.464Z,100957.87
2017-12-08T17:39:22.982Z,100964.70
2017-12-08T17:41:51.401Z,100968.20
2017-12-08T17:44:19.689Z,100980.28
2017-12-08T17:46:48.009Z,100983.33
2017-12-08T17:49:16.377Z,100985.58
2017-12-08T17:51:44.833Z,100995.30
2017-12-08T17:54:13.229Z,100990.60
2017-12-08T17:56:41.621Z,100991.17
2017-12-08T17:59:10.097Z,100996.98
2017-12-08T18:01:38.872Z,100993.83
2017-12-08T18:04:07.232Z,101002.99
2017-12-08T18:06:35.563Z,101001.22
2017-12-08T18:09:03.923Z,101003.30
2017-12-08T18:11:32.258Z,101018.39
2017-12-08T18:14:00.617Z,101027.72
2017-12-08T18:16:28.949Z,101040.73
2017-12-08T18:18:57.251Z,101041.81
2017-12-08T18:21:25.560Z,101022.53
2017-12-08T18:23:55.131Z,101098.95
2017-12-08T18:26:23.446Z,101069.04
2017-12-08T18:28:51.752Z,101074.23
2017-12-08T18:31:20.103Z,101062.80
2017-12-08T18:33:48.410Z,101076.87
2017-12-08T18:36:17.591Z,101083.86
2017-12-08T18:38:46.719Z,101070.02
2017-12-08T18:41:15.034Z,101095.27
2017-12-08T18:43:43.380Z,101087.78
2017-12-08T18:46:11.697Z,101093.95
2017-12-08T18:48:40.077Z,101091.31
2017-12-08T18:51:10.002Z,101079.16
2017-12-08T18:53:38.341Z,101085.13
2017-12-08T18:56:06.701Z,101079.27
2017-12-08T18:58:36.177Z,101062.18
2017-12-08T19:01:05.416Z,101092.59
2017-12-08T19:03:34.510Z,101074.06
2017-12-08T19:06:03.656Z,101085.42
2017-12-08T19:08:31.990Z,101096.11
2017-12-08T19:11:01.136Z,101106.27
2017-12-08T19:13:29.552Z,101110.08
2017-12-08T19:15:57.889Z,101114.65
2017-12-08T19:18:26.202Z,101115.28
2017-12-08T19:20:54.665Z,101111.25
2017-12-08T19:23:23.180Z,101107.84
2017-12-08T19:25:52.380Z,101118.89
2017-12-08T19:28:21.508Z,101135.43
2017-12-08T19:30:49.908Z,101119.91
2017-12-08T19:33:18.229Z,101138.17
2017-12-08T19:35:46.624Z,101148.04
2017-12-08T19:38:15.751Z,101142.84
2017-12-08T19:40:44.894Z,101136.27
2017-12-08T19:43:13.216Z,101144.94
2017-12-08T19:45:41.531Z,101139.65
2017-12-08T19:48:09.850Z,101129.61
2017-12-08T19:50:38.257Z,101121.47
2017-12-08T19:53:06.568Z,101114.50
2017-12-08T19:55:34.910Z,101109.40
2017-12-08T19:58:03.286Z,101119.14
2017-12-08T20:00:31.597Z,101131.75
2017-12-08T20:03:00.668Z,101132.11
2017-12-08T20:05:28.969Z,101137.97
2017-12-08T20:07:58.086Z,101144.22
2017-12-08T20:10:26.404Z,101133.63
2017-12-08T20:12:54.704Z,101144.39
2017-12-08T20:15:23.032Z,101150.62
2017-12-08T20:17:51.336Z,101184.17
2017-12-08T20:20:19.755Z,101173.95
2017-12-08T20:22:48.086Z,101172.70
2017-12-08T20:25:16.385Z,101172.79
2017-12-08T20:27:44.879Z,101174.67
2017-12-08T20:30:13.218Z,101177.49
2017-12-08T20:32:41.550Z,101180.28
2017-12-08T20:35:09.860Z,101192.12
2017-12-08T20:37:38.972Z,101185.72
2017-12-08T20:40:08.087Z,101171.30
2017-12-08T20:42:36.413Z,101159.64
2017-12-08T20:45:04.737Z,101159.64
2017-12-08T20:47:34.266Z,101164.02
2017-12-08T20:50:02.730Z,101160.45
2017-12-08T20:52:31.818Z,101151.22
2017-12-08T20:55:00.890Z,101140.95
2017-12-08T20:57:29.201Z,101146.57
2017-12-08T20:59:58.376Z,101150.62
2017-12-08T21:02:26.736Z,101165.34
2017-12-08T21:04:55.193Z,101176.78
2017-12-08T21:07:23.752Z,101174.45
2017-12-08T21:09:52.085Z,101180.45
2017-12-08T21:12:20.458Z,101187.72
2017-12-08T21:14:53.914Z,101190.17
2017-12-08T21:17:23.079Z,101190.66
2017-12-08T21:19:51.399Z,101186.80
2017-12-08T21:22:19.736Z,101187.20
2017-12-08T21:24:49.027Z,101193.72
2017-12-08T21:27:17.998Z,101178.88
2017-12-08T21:29:46.315Z,101184.30
2017-12-08T21:32:14.736Z,101178.73
2017-12-08T21:34:43.824Z,101181.31
2017-12-08T21:37:13.183Z,101175.61
2017-12-08T21:39:43.100Z,101180.13
2017-12-08T21:42:11.423Z,101189.02
2017-12-08T21:44:40.596Z,101184.23
2017-12-08T21:47:09.053Z,101182.50
2017-12-08T21:49:37.555Z,101187.14
2017-12-08T21:52:05.884Z,101188.32
2017-12-08T21:54:34.979Z,101186.02
2017-12-08T21:57:04.112Z,101187.40
2017-12-08T21:59:32.449Z,101199.28
2017-12-08T22:02:00.768Z,101195.95
2017-12-08T22:04:29.468Z,101189.35
2017-12-08T22:06:57.787Z,101185.17
2017-12-08T22:09:26.089Z,101191.31
2017-12-08T22:11:55.201Z,101190.25
2017-12-08T22:14:23.541Z,101187.82
2017-12-08T22:16:51.853Z,101174.94
2017-12-08T22:19:20.940Z,101187.36
2017-12-08T22:21:50.020Z,101183.97
2017-12-08T22:24:18.357Z,101192.94
2017-12-08T22:26:46.696Z,101188.00
2017-12-08T22:29:15.018Z,101187.58
2017-12-08T22:31:43.379Z,101191.91
2017-12-08T22:34:13.199Z,101189.61
2017-12-08T22:36:42.272Z,101192.89
2017-12-08T22:39:11.371Z,101196.43
2017-12-08T22:41:40.549Z,101209.70
2017-12-08T22:44:08.872Z,101220.27
2017-12-08T22:46:37.317Z,101202.84
2017-12-08T22:49:05.618Z,101195.67
2017-12-08T22:51:34.734Z,101202.67
2017-12-08T22:54:03.104Z,101206.90
2017-12-08T22:56:32.198Z,101194.41
2017-12-08T22:59:00.502Z,101187.06
2017-12-08T23:01:28.822Z,101191.93
2017-12-08T23:03:57.135Z,101197.11
2017-12-08T23:06:25.449Z,101196.63
2017-12-08T23:08:53.776Z,101199.20
2017-12-08T23:11:22.103Z,101199.78
2017-12-08T23:13:50.448Z,101205.23
2017-12-08T23:16:18.749Z,101197.75
2017-12-08T23:18:47.090Z,101194.89
2017-12-08T23:21:15.440Z,101198.70
2017-12-08T23:23:43.774Z,101198.30
2017-12-08T23:26:12.864Z,101193.52
2017-12-08T23:28:41.197Z,101189.34
2017-12-08T23:31:09.527Z,101188.91
2017-12-08T23:33:37.883Z,101194.88
2017-12-08T23:36:06.189Z,101192.25
2017-12-08T23:38:34.513Z,101190.98
2017-12-08T23:41:02.851Z,101185.97
2017-12-08T23:43:31.189Z,101186.52
2017-12-08T23:45:59.496Z,101189.41
2017-12-08T23:48:27.825Z,101180.85
2017-12-08T23:50:56.915Z,101178.11
2017-12-08T23:53:25.987Z,101176.91
2017-12-08T23:55:54.311Z,101172.80
2017-12-08T23:58:22.625Z,101173.91
